Time,TemperatureF,DewpointF,PressureIn,WindDirection,WindDirectionDegrees,WindSpeedMPH,WindSpeedGustMPH,Humidity,HourlyPrecipIn,Conditions,Clouds,dailyrainin,SolarRadiationWatts/m^2,SoftwareType,DateUTC
2013-07-25 00:02:00,74.6,69.0,29.95,North,360,2.0,4.0,82,0.00,,,0.00,0,weatherlink.com 1.10,2013-07-25 05:02:00,
2013-07-25 00:17:00,74.1,68.0,29.95,North,360,0.0,2.0,82,0.00,,,0.00,0,weatherlink.com 1.10,2013-07-25 05:17:00,
2013-07-25 00:32:00,73.8,68.0,29.95,NNW,335,0.0,3.0,82,0.00,,,0.00,0,weatherlink.com 1.10,2013-07-25 05:32:00,
2013-07-25 00:47:00,73.2,68.0,29.95,NNW,344,0.0,2.0,83,0.00,,,0.00,0,weatherlink.com 1.10,2013-07-25 05:47:00,
2013-07-25 01:02:00,72.9,67.0,29.95,NNW,344,0.0,2.0,82,0.00,,,0.00,0,weatherlink.com 1.10,2013-07-25 06:02:00,
2013-07-25 01:17:00,72.8,67.0,29.95,NNW,327,0.0,3.0,82,0.00,,,0.00,0,weatherlink.com 1.10,2013-07-25 06:17:00,
2013-07-25 01:32:00,72.6,67.0,29.95,NNW,327,0.0,2.0,82,0.00,,,0.00,0,weatherlink.com 1.10,2013-07-25 06:32:00,
2013-07-25 01:47:00,72.1,66.0,29.95,North,10,1.0,3.0,82,0.00,,,0.00,0,weatherlink.com 1.10,2013-07-25 06:47:00,
2013-07-25 02:02:00,71.8,66.0,29.95,NNW,335,0.0,3.0,82,0.00,,,0.00,0,weatherlink.com 1.10,2013-07-25 07:02:00,
2013-07-25 02:17:00,71.5,66.0,29.96,NNE,31,0.0,4.0,82,0.00,,,0.00,0,weatherlink.com 1.10,2013-07-25 07:17:00,
2013-07-25 02:32:00,71.1,65.0,29.96,NE,39,0.0,3.0,82,0.00,,,0.00,0,weatherlink.com 1.10,2013-07-25 07:32:00,
2013-07-25 02:47:00,70.7,65.0,29.95,NE,39,0.0,2.0,83,0.00,,,0.00,0,weatherlink.com 1.10,2013-07-25 07:47:00,
2013-07-25 03:02:00,70.3,65.0,29.95,NE,39,0.0,1.0,83,0.00,,,0.00,0,weatherlink.com 1.10,2013-07-25 08:02:00,
2013-07-25 03:17:00,69.7,65.0,29.96,NE,39,0.0,3.0,84,0.00,,,0.00,0,weatherlink.com 1.10,2013-07-25 08:17:00,
2013-07-25 03:32:00,69.2,65.0,29.96,NE,39,0.0,1.0,85,0.00,,,0.00,0,weatherlink.com 1.10,2013-07-25 08:32:00,
2013-07-25 03:48:00,68.6,64.0,29.96,NE,39,0.0,2.0,86,0.00,,,0.00,0,weatherlink.com 1.10,2013-07-25 08:48:00,
2013-07-25 04:03:00,68.0,64.0,29.96,NE,39,0.0,1.0,87,0.00,,,0.00,0,weatherlink.com 1.10,2013-07-25 09:03:00,
2013-07-25 04:18:00,67.6,64.0,29.96,NE,39,0.0,1.0,87,0.00,,,0.00,0,weatherlink.com 1.10,2013-07-25 09:18:00,
2013-07-25 04:33:00,67.1,64.0,29.97,NE,39,0.0,1.0,88,0.00,,,0.00,0,weatherlink.com 1.10,2013-07-25 09:33:00,
2013-07-25 04:48:00,66.6,63.0,29.97,NE,39,0.0,1.0,89,0.00,,,0.00,0,weatherlink.com 1.10,2013-07-25 09:48:00,
2013-07-25 05:05:00,66.2,63.0,29.98,NE,39,0.0,1.0,90,0.00,,,0.00,0,weatherlink.com 1.10,2013-07-25 10:05:00,
2013-07-25 05:20:00,65.7,63.0,29.99,NE,39,0.0,0.0,91,0.00,,,0.00,0,weatherlink.com 1.10,2013-07-25 10:20:00,
2013-07-25 05:35:00,65.3,63.0,29.99,NE,39,0.0,0.0,91,0.00,,,0.00,0,weatherlink.com 1.10,2013-07-25 10:35:00,
2013-07-25 05:50:00,64.9,63.0,30.00,NE,39,0.0,0.0,92,0.00,,,0.00,0,weatherlink.com 1.10,2013-07-25 10:50:00,
2013-07-25 06:05:00,64.8,63.0,30.01,NE,39,0.0,0.0,93,0.00,,,0.00,7,weatherlink.com 1.10,2013-07-25 11:05:00,
2013-07-25 06:20:00,64.5,63.0,30.01,NE,39,0.0,0.0,93,0.00,,,0.00,14,weatherlink.com 1.10,2013-07-25 11:20:00,
2013-07-25 06:35:00,64.3,62.0,30.01,NE,39,0.0,0.0,93,0.00,,,0.00,21,weatherlink.com 1.10,2013-07-25 11:35:00,
2013-07-25 06:51:00,64.6,63.0,30.02,NE,39,0.0,0.0,94,0.00,,,0.00,90,weatherlink.com 1.10,2013-07-25 11:51:00,
2013-07-25 07:07:00,66.3,64.0,30.02,NE,39,0.0,2.0,93,0.00,,,0.00,128,weatherlink.com 1.10,2013-07-25 12:07:00,
2013-07-25 07:21:00,67.7,64.0,30.02,NE,39,1.0,2.0,88,0.00,,,0.00,149,weatherlink.com 1.10,2013-07-25 12:21:00,
2013-07-25 07:36:00,68.6,64.0,30.02,NE,49,0.0,4.0,86,0.00,,,0.00,258,weatherlink.com 1.10,2013-07-25 12:36:00,
2013-07-25 07:51:00,70.3,65.0,30.02,NE,46,2.0,3.0,82,0.00,,,0.00,311,weatherlink.com 1.10,2013-07-25 12:51:00,
2013-07-25 08:07:00,71.7,65.0,30.03,NE,43,2.0,5.0,79,0.00,,,0.00,274,weatherlink.com 1.10,2013-07-25 13:07:00,
2013-07-25 08:23:00,72.2,65.0,30.03,NE,40,0.0,5.0,77,0.00,,,0.00,403,weatherlink.com 1.10,2013-07-25 13:23:00,
2013-07-25 08:38:00,73.2,65.0,30.03,North,360,1.0,4.0,76,0.00,,,0.00,392,weatherlink.com 1.10,2013-07-25 13:38:00,
2013-07-25 08:53:00,73.8,65.0,30.03,NNW,348,1.0,6.0,73,0.00,,,0.00,411,weatherlink.com 1.10,2013-07-25 13:53:00,
2013-07-25 09:09:00,74.7,65.0,30.03,ENE,62,2.0,6.0,71,0.00,,,0.00,526,weatherlink.com 1.10,2013-07-25 14:09:00,
2013-07-25 09:23:00,75.3,64.0,30.04,NE,56,0.0,6.0,69,0.00,,,0.00,557,weatherlink.com 1.10,2013-07-25 14:23:00,
2013-07-25 09:38:00,76.0,65.0,30.04,NNW,342,3.0,7.0,68,0.00,,,0.00,631,weatherlink.com 1.10,2013-07-25 14:38:00,
2013-07-25 09:53:00,76.4,64.0,30.03,NW,324,1.0,8.0,65,0.00,,,0.00,666,weatherlink.com 1.10,2013-07-25 14:53:00,
2013-07-25 10:10:00,76.9,63.0,30.04,NNE,17,3.0,8.0,62,0.00,,,0.00,703,weatherlink.com 1.10,2013-07-25 15:10:00,
2013-07-25 10:25:00,77.6,63.0,30.04,North,360,1.0,9.0,60,0.00,,,0.00,744,weatherlink.com 1.10,2013-07-25 15:25:00,
2013-07-25 10:40:00,77.4,62.0,30.05,NNW,347,4.0,9.0,60,0.00,,,0.00,719,weatherlink.com 1.10,2013-07-25 15:40:00,
2013-07-25 10:55:00,78.0,62.0,30.05,NE,41,4.0,8.0,59,0.00,,,0.00,802,weatherlink.com 1.10,2013-07-25 15:55:00,
2013-07-25 11:10:00,78.4,63.0,30.06,NE,49,2.0,8.0,59,0.00,,,0.00,817,weatherlink.com 1.10,2013-07-25 16:10:00,
2013-07-25 11:25:00,78.6,63.0,30.06,NNW,340,4.0,12.0,59,0.00,,,0.00,865,weatherlink.com 1.10,2013-07-25 16:25:00,
2013-07-25 11:41:00,78.9,63.0,30.06,NW,325,4.0,7.0,58,0.00,,,0.00,882,weatherlink.com 1.10,2013-07-25 16:41:00,
2013-07-25 11:56:00,79.0,64.0,30.06,NNW,334,3.0,8.0,60,0.00,,,0.00,918,weatherlink.com 1.10,2013-07-25 16:56:00,
2013-07-25 12:11:00,79.7,63.0,30.07,NW,320,6.0,10.0,56,0.00,,,0.00,930,weatherlink.com 1.10,2013-07-25 17:11:00,
2013-07-25 12:27:00,80.0,62.0,30.06,NE,50,1.0,6.0,55,0.00,,,0.00,940,weatherlink.com 1.10,2013-07-25 17:27:00,
2013-07-25 12:41:00,80.3,62.0,30.06,NNW,332,2.0,6.0,53,0.00,,,0.00,932,weatherlink.com 1.10,2013-07-25 17:41:00,
2013-07-25 12:56:00,80.5,64.0,30.05,NNW,332,4.0,7.0,57,0.00,,,0.00,904,weatherlink.com 1.10,2013-07-25 17:56:00,
2013-07-25 13:11:00,80.6,63.0,30.05,ENE,58,3.0,7.0,56,0.00,,,0.00,893,weatherlink.com 1.10,2013-07-25 18:11:00,
2013-07-25 13:28:00,80.9,65.0,30.05,NNW,332,1.0,7.0,58,0.00,,,0.00,872,weatherlink.com 1.10,2013-07-25 18:28:00,
2013-07-25 13:43:00,81.2,64.0,30.05,NNW,345,1.0,7.0,56,0.00,,,0.00,912,weatherlink.com 1.10,2013-07-25 18:43:00,
2013-07-25 13:58:00,81.3,64.0,30.04,ENE,58,1.0,6.0,56,0.00,,,0.00,925,weatherlink.com 1.10,2013-07-25 18:58:00,
2013-07-25 14:13:00,81.7,62.0,30.04,NE,49,3.0,7.0,51,0.00,,,0.00,949,weatherlink.com 1.10,2013-07-25 19:13:00,
2013-07-25 14:28:00,81.9,62.0,30.04,NE,47,4.0,8.0,51,0.00,,,0.00,904,weatherlink.com 1.10,2013-07-25 19:28:00,
2013-07-25 14:43:00,82.2,64.0,30.04,North,349,2.0,5.0,54,0.00,,,0.00,738,weatherlink.com 1.10,2013-07-25 19:43:00,
2013-07-25 14:58:00,81.9,63.0,30.04,NE,56,0.0,6.0,53,0.00,,,0.00,563,weatherlink.com 1.10,2013-07-25 19:58:00,
2013-07-25 15:13:00,82.0,64.0,30.04,NW,325,5.0,7.0,54,0.00,,,0.00,397,weatherlink.com 1.10,2013-07-25 20:13:00,
2013-07-25 15:30:00,81.7,64.0,30.04,NW,322,2.0,7.0,56,0.00,,,0.00,427,weatherlink.com 1.10,2013-07-25 20:30:00,
2013-07-25 15:45:00,81.8,65.0,30.04,North,354,0.0,7.0,56,0.00,,,0.00,366,weatherlink.com 1.10,2013-07-25 20:45:00,
2013-07-25 16:00:00,81.2,63.0,30.05,NNW,336,6.0,8.0,55,0.00,,,0.00,459,weatherlink.com 1.10,2013-07-25 21:00:00,
2013-07-25 16:15:00,80.7,64.0,30.05,NW,310,4.0,9.0,58,0.00,,,0.00,404,weatherlink.com 1.10,2013-07-25 21:15:00,
2013-07-25 16:30:00,79.8,64.0,30.06,WNW,299,7.0,13.0,59,0.00,,,0.00,373,weatherlink.com 1.10,2013-07-25 21:30:00,
2013-07-25 16:45:00,79.5,63.0,30.05,West,277,7.0,12.0,57,0.00,,,0.00,380,weatherlink.com 1.10,2013-07-25 21:45:00,
2013-07-25 17:00:00,79.1,63.0,30.05,NW,314,3.0,8.0,58,0.00,,,0.00,288,weatherlink.com 1.10,2013-07-25 22:00:00,
2013-07-25 17:16:00,78.7,63.0,30.04,NNW,333,3.0,8.0,58,0.00,,,0.00,267,weatherlink.com 1.10,2013-07-25 22:16:00,
2013-07-25 17:32:00,78.6,62.0,30.05,NW,320,5.0,8.0,58,0.00,,,0.00,227,weatherlink.com 1.10,2013-07-25 22:32:00,
2013-07-25 17:45:00,78.5,63.0,30.04,NNW,346,2.0,5.0,60,0.00,,,0.00,211,weatherlink.com 1.10,2013-07-25 22:45:00,
2013-07-25 18:01:00,78.3,63.0,30.04,NNE,27,2.0,6.0,60,0.00,,,0.00,206,weatherlink.com 1.10,2013-07-25 23:01:00,
2013-07-25 18:17:00,77.9,64.0,30.04,NW,320,4.0,5.0,62,0.00,,,0.00,118,weatherlink.com 1.10,2013-07-25 23:17:00,
2013-07-25 18:32:00,77.4,64.0,30.04,NNW,344,1.0,5.0,64,0.00,,,0.00,102,weatherlink.com 1.10,2013-07-25 23:32:00,
2013-07-25 18:47:00,76.9,64.0,30.04,NNE,32,1.0,6.0,65,0.00,,,0.00,81,weatherlink.com 1.10,2013-07-25 23:47:00,
2013-07-25 19:02:00,76.4,65.0,30.04,North,5,0.0,4.0,67,0.00,,,0.00,60,weatherlink.com 1.10,2013-07-26 00:02:00,
2013-07-25 19:18:00,75.9,64.0,30.04,NW,314,0.0,4.0,67,0.00,,,0.00,51,weatherlink.com 1.10,2013-07-26 00:18:00,
2013-07-25 19:33:00,75.5,64.0,30.04,NW,314,0.0,2.0,68,0.00,,,0.00,37,weatherlink.com 1.10,2013-07-26 00:33:00,
2013-07-25 19:47:00,75.0,64.0,30.04,West,281,0.0,3.0,68,0.00,,,0.00,23,weatherlink.com 1.10,2013-07-26 00:47:00,
2013-07-25 20:03:00,74.5,64.0,30.04,WNW,295,0.0,1.0,69,0.00,,,0.00,9,weatherlink.com 1.10,2013-07-26 01:03:00,
2013-07-25 20:18:00,73.9,64.0,30.04,NNE,27,0.0,2.0,70,0.00,,,0.00,0,weatherlink.com 1.10,2013-07-26 01:18:00,
2013-07-25 20:34:00,73.4,63.0,30.05,NNW,345,2.0,4.0,70,0.00,,,0.00,0,weatherlink.com 1.10,2013-07-26 01:34:00,
2013-07-25 20:48:00,73.1,64.0,30.05,NNW,345,2.0,3.0,72,0.00,,,0.00,0,weatherlink.com 1.10,2013-07-26 01:48:00,
2013-07-25 21:03:00,72.8,63.0,30.05,NNW,345,0.0,4.0,71,0.00,,,0.00,0,weatherlink.com 1.10,2013-07-26 02:03:00,
2013-07-25 21:18:00,72.5,63.0,30.05,NNW,345,1.0,3.0,72,0.00,,,0.00,0,weatherlink.com 1.10,2013-07-26 02:18:00,
2013-07-25 21:34:00,71.9,63.0,30.05,NNW,345,0.0,0.0,74,0.00,,,0.00,0,weatherlink.com 1.10,2013-07-26 02:34:00,
2013-07-25 21:50:00,70.4,63.0,30.06,NNW,345,0.0,0.0,77,0.00,,,0.00,0,weatherlink.com 1.10,2013-07-26 02:50:00,
2013-07-25 22:04:00,69.8,63.0,30.05,NNW,345,0.0,1.0,79,0.00,,,0.00,0,weatherlink.com 1.10,2013-07-26 03:04:00,
2013-07-25 22:19:00,69.0,63.0,30.05,NNW,345,0.0,2.0,80,0.00,,,0.00,0,weatherlink.com 1.10,2013-07-26 03:19:00,
2013-07-25 22:34:00,68.6,62.0,30.04,NNW,345,0.0,2.0,79,0.00,,,0.00,0,weatherlink.com 1.10,2013-07-26 03:34:00,
2013-07-25 22:49:00,68.4,61.0,30.04,NNW,345,0.0,1.0,78,0.00,,,0.00,0,weatherlink.com 1.10,2013-07-26 03:49:00,
2013-07-25 23:04:00,67.8,61.0,30.04,NNW,345,0.0,0.0,78,0.00,,,0.00,0,weatherlink.com 1.10,2013-07-26 04:04:00,
2013-07-25 23:20:00,67.3,61.0,30.04,NNW,345,0.0,0.0,79,0.00,,,0.00,0,weatherlink.com 1.10,2013-07-26 04:20:00,
2013-07-25 23:34:00,66.5,61.0,30.04,NNW,345,0.0,1.0,81,0.00,,,0.00,0,weatherlink.com 1.10,2013-07-26 04:34:00,
2013-07-25 23:49:00,66.2,61.0,30.05,NNW,345,0.0,0.0,82,0.00,,,0.00,0,weatherlink.com 1.10,2013-07-26 04:49:00,